Time;durP1;ratioP1;P1;durP2;ratioP2;P2;SDS_P1;SDS_P2;PMS_P1;PMS_P2;Temp;Humidity;BMP_temperature;BMP_pressure;BME280_temperature;BME280_humidity;BME280_pressure;Samples;Min_cycle;Max_cycle;Signal;HPM_P1;HPM_P2
2021/03/27 00:01:51;;;;;;;2.50;1.10;;;12.90;99.90;;;;;;5110763;28;20445;-61
2021/03/27 00:04:24;;;;;;;2.20;1.10;;;13.00;99.90;;;;;;5110300;28;20840;-60
2021/03/27 00:06:54;;;;;;;1.55;1.10;;;13.00;99.90;;;;;;5099116;28;20457;-60
2021/03/27 00:09:30;;;;;;;2.40;1.10;;;12.90;99.90;;;;;;5097424;28;20425;-60
2021/03/27 00:12:03;;;;;;;2.08;1.00;;;12.90;99.90;;;;;;5097221;28;20721;-61
2021/03/27 00:14:39;;;;;;;1.70;0.90;;;12.80;99.90;;;;;;5096911;28;20860;-61
2021/03/27 00:17:09;;;;;;;1.90;1.00;;;12.70;99.90;;;;;;5096674;28;20418;-60
2021/03/27 00:19:42;;;;;;;2.90;1.00;;;12.70;99.90;;;;;;5096866;28;20656;-61
2021/03/27 00:22:18;;;;;;;1.50;0.90;;;12.60;99.90;;;;;;5095547;28;20437;-61
2021/03/27 00:25:16;;;;;;;2.50;0.82;;;12.60;99.90;;;;;;5095036;28;20484;-61
2021/03/27 00:27:52;;;;;;;1.05;0.80;;;12.70;99.90;;;;;;5012657;28;20459;-61
2021/03/27 00:30:23;;;;;;;1.58;0.73;;;12.70;99.90;;;;;;5082059;28;20425;-61
2021/03/27 00:32:53;;;;;;;1.70;0.80;;;12.70;99.90;;;;;;5095312;28;20418;-61
2021/03/27 00:35:26;;;;;;;1.10;0.80;;;12.60;99.90;;;;;;5094957;28;20529;-62
2021/03/27 00:37:53;;;;;;;1.20;0.75;;;12.60;99.90;;;;;;5096810;28;20418;-61
2021/03/27 00:40:24;;;;;;;1.42;0.75;;;12.60;99.90;;;;;;5096510;28;20774;-62
2021/03/27 00:42:58;;;;;;;2.10;0.90;;;12.60;99.90;;;;;;5096903;28;20500;-62
2021/03/27 00:45:29;;;;;;;1.45;0.80;;;12.50;99.90;;;;;;5096562;28;20457;-59
2021/03/27 00:48:00;;;;;;;1.10;0.70;;;12.40;99.90;;;;;;5096419;28;20447;-61
2021/03/27 00:50:31;;;;;;;1.30;0.70;;;12.40;99.90;;;;;;5096672;28;20429;-61
2021/03/27 00:53:03;;;;;;;1.45;0.80;;;12.30;99.90;;;;;;5096358;28;20449;-61
2021/03/27 00:55:36;;;;;;;1.40;0.70;;;12.20;99.90;;;;;;5095698;28;20483;-61
2021/03/27 00:58:12;;;;;;;1.30;0.70;;;12.20;99.90;;;;;;5096019;28;20425;-62
2021/03/27 01:00:42;;;;;;;1.00;0.70;;;12.20;99.90;;;;;;5095817;28;20883;-61
2021/03/27 01:03:13;;;;;;;1.70;0.70;;;12.20;99.90;;;;;;5095742;28;20414;-61
2021/03/27 01:05:42;;;;;;;1.30;0.80;;;12.20;99.90;;;;;;5095865;28;20429;-61
2021/03/27 01:08:11;;;;;;;2.50;0.82;;;12.20;99.90;;;;;;5096096;28;20449;-61
2021/03/27 01:10:43;;;;;;;1.70;0.80;;;12.10;99.90;;;;;;5095475;28;20749;-60
2021/03/27 01:13:15;;;;;;;1.00;0.80;;;12.10;99.90;;;;;;5096447;28;21014;-61
2021/03/27 01:15:45;;;;;;;1.30;0.90;;;12.00;99.90;;;;;;5096188;28;20434;-61
2021/03/27 01:18:17;;;;;;;1.65;0.80;;;12.00;99.90;;;;;;5093996;28;20507;-61
2021/03/27 01:20:50;;;;;;;1.55;0.80;;;11.90;99.90;;;;;;5093328;28;20686;-61
2021/03/27 01:23:17;;;;;;;1.60;0.80;;;11.90;99.90;;;;;;5093536;28;20886;-61
2021/03/27 01:25:44;;;;;;;1.45;0.90;;;11.80;99.90;;;;;;5092545;28;20420;-61
2021/03/27 01:28:20;;;;;;;1.10;0.80;;;11.70;99.90;;;;;;5092338;28;20457;-61
2021/03/27 01:31:01;;;;;;;1.73;0.90;;;11.60;99.90;;;;;;5092164;28;20496;-61
2021/03/27 01:33:31;;;;;;;1.20;0.70;;;11.50;99.90;;;;;;5092941;28;20461;-61
2021/03/27 01:36:08;;;;;;;1.40;0.73;;;11.50;99.90;;;;;;5093446;28;20800;-61
2021/03/27 01:38:39;;;;;;;1.30;0.80;;;11.50;99.90;;;;;;5093017;28;20457;-61
2021/03/27 01:41:16;;;;;;;2.60;0.80;;;11.40;99.90;;;;;;5094183;28;20600;-61
2021/03/27 01:43:53;;;;;;;1.80;0.80;;;11.40;99.90;;;;;;5093538;28;20495;-61
2021/03/27 01:46:32;;;;;;;1.20;0.80;;;11.50;99.90;;;;;;5093399;28;20500;-61
2021/03/27 01:49:29;;;;;;;1.40;0.80;;;11.50;99.90;;;;;;5093399;28;20453;-60
2021/03/27 01:52:08;;;;;;;1.25;0.80;;;11.30;99.90;;;;;;5093672;28;20421;-60
2021/03/27 01:54:40;;;;;;;1.17;0.70;;;11.20;99.90;;;;;;5095207;28;20470;-61
2021/03/27 01:57:22;;;;;;;2.40;0.80;;;11.20;99.90;;;;;;5095983;28;20453;-60
2021/03/27 01:59:53;;;;;;;2.20;0.90;;;11.20;99.90;;;;;;5094508;28;20837;-60
2021/03/27 02:02:30;;;;;;;1.30;0.90;;;11.00;99.90;;;;;;5094232;28;20422;-60
2021/03/27 02:05:01;;;;;;;1.70;0.80;;;10.90;99.90;;;;;;5094508;28;20825;-58
2021/03/27 02:07:39;;;;;;;3.90;1.00;;;11.00;99.90;;;;;;5092963;28;20453;-59
2021/03/27 02:10:12;;;;;;;1.40;0.80;;;11.00;99.90;;;;;;5093427;28;20457;-59
2021/03/27 02:12:53;;;;;;;1.48;0.80;;;10.90;99.90;;;;;;5094078;28;20495;-58
2021/03/27 02:15:40;;;;;;;2.67;0.80;;;10.90;99.90;;;;;;5094520;28;20469;-59
2021/03/27 02:18:15;;;;;;;1.80;0.90;;;10.80;99.90;;;;;;5094587;28;20418;-61
2021/03/27 02:21:04;;;;;;;2.10;0.90;;;10.70;99.90;;;;;;5094735;28;20469;-58
2021/03/27 02:23:40;;;;;;;1.45;0.90;;;10.70;99.90;;;;;;5095403;28;20468;-59
2021/03/27 02:26:20;;;;;;;1.38;1.00;;;10.60;99.90;;;;;;5094784;28;20491;-59
2021/03/27 02:29:01;;;;;;;1.70;0.90;;;10.60;99.90;;;;;;5093917;28;20500;-60
2021/03/27 02:31:33;;;;;;;2.00;0.90;;;10.50;99.90;;;;;;5094741;28;20505;-59
2021/03/27 02:34:09;;;;;;;1.20;0.95;;;10.40;99.90;;;;;;5094628;28;20479;-61
2021/03/27 02:36:47;;;;;;;1.70;1.00;;;10.40;99.90;;;;;;5093270;28;20441;-61
2021/03/27 02:39:19;;;;;;;1.67;0.90;;;10.40;99.90;;;;;;5092839;28;20429;-61
2021/03/27 02:42:01;;;;;;;1.60;0.90;;;10.30;99.90;;;;;;5093479;28;20447;-60
2021/03/27 02:44:32;;;;;;;3.00;1.00;;;10.30;99.90;;;;;;5093314;28;20425;-60
2021/03/27 02:47:29;;;;;;;1.50;0.80;;;10.20;99.90;;;;;;5092719;28;20512;-60
2021/03/27 02:50:01;;;;;;;1.27;0.90;;;10.30;99.90;;;;;;5092518;28;20782;-60
2021/03/27 02:52:33;;;;;;;1.50;1.00;;;10.30;99.90;;;;;;5092969;28;20436;-60
2021/03/27 02:55:06;;;;;;;1.98;1.00;;;10.30;99.90;;;;;;5092659;28;20854;-60
2021/03/27 02:57:39;;;;;;;1.30;0.90;;;10.20;99.90;;;;;;5092726;28;20445;-60
2021/03/27 03:00:15;;;;;;;1.65;1.05;;;10.20;99.90;;;;;;5092772;28;20856;-60
2021/03/27 03:02:50;;;;;;;1.50;0.80;;;10.10;99.90;;;;;;5092725;28;20613;-60
2021/03/27 03:05:22;;;;;;;1.20;0.83;;;10.00;99.90;;;;;;5092919;28;20414;-60
2021/03/27 03:08:09;;;;;;;2.00;0.90;;;10.00;99.90;;;;;;5093244;28;20422;-60
2021/03/27 03:10:41;;;;;;;1.40;0.90;;;10.00;99.90;;;;;;5093583;28;20425;-60
2021/03/27 03:13:19;;;;;;;1.70;0.90;;;10.00;99.90;;;;;;5093954;28;20768;-60
2021/03/27 03:15:52;;;;;;;1.30;0.85;;;10.20;99.90;;;;;;5094542;28;20734;-60
2021/03/27 03:18:31;;;;;;;1.70;0.80;;;10.20;99.90;;;;;;5094380;28;20460;-60
2021/03/27 03:21:03;;;;;;;2.00;0.70;;;10.10;99.90;;;;;;5094068;28;20500;-59
2021/03/27 03:23:34;;;;;;;1.40;0.80;;;10.00;99.90;;;;;;5093801;28;20418;-59
2021/03/27 03:26:09;;;;;;;1.40;0.90;;;10.00;99.90;;;;;;5094150;28;20414;-60
2021/03/27 03:28:49;;;;;;;1.50;0.75;;;10.10;99.90;;;;;;5094109;28;20418;-60
2021/03/27 03:31:30;;;;;;;1.20;0.70;;;10.10;99.90;;;;;;5093868;28;20422;-60
2021/03/27 03:34:26;;;;;;;2.00;0.80;;;10.10;99.90;;;;;;5093621;28;20468;-60
2021/03/27 03:37:08;;;;;;;1.40;0.70;;;10.10;99.90;;;;;;5092881;28;20456;-59
2021/03/27 03:40:15;;;;;;;1.53;0.70;;;10.10;99.90;;;;;;5094780;28;20425;-60
2021/03/27 03:43:18;;;;;;;2.03;0.70;;;10.00;99.90;;;;;;5098087;28;20505;-60
2021/03/27 03:46:03;;;;;;;1.23;0.70;;;10.10;99.90;;;;;;5098251;28;20449;-60
2021/03/27 03:48:53;;;;;;;1.20;0.55;;;10.20;99.90;;;;;;5098104;28;20564;-59
2021/03/27 03:51:27;;;;;;;0.53;0.30;;;10.00;99.90;;;;;;5098093;28;20453;-60
2021/03/27 03:54:11;;;;;;;0.40;0.20;;;9.80;99.90;;;;;;5097676;28;20483;-60
2021/03/27 03:56:46;;;;;;;0.40;0.20;;;9.60;99.90;;;;;;5097097;28;20571;-59
2021/03/27 03:59:32;;;;;;;0.40;0.20;;;9.40;99.90;;;;;;5097931;28;20429;-59
2021/03/27 04:02:05;;;;;;;0.40;0.20;;;9.30;99.90;;;;;;5094699;28;20465;-60
2021/03/27 04:04:42;;;;;;;1.00;0.20;;;9.10;99.90;;;;;;5097699;28;20509;-60
2021/03/27 04:07:23;;;;;;;0.40;0.20;;;9.10;99.90;;;;;;5097838;28;20509;-59
2021/03/27 04:09:56;;;;;;;0.50;0.20;;;9.20;99.90;;;;;;5097013;28;20864;-60
2021/03/27 04:12:33;;;;;;;0.30;0.20;;;9.20;99.90;;;;;;5097833;28;20422;-60
2021/03/27 04:15:24;;;;;;;0.40;0.20;;;9.20;99.90;;;;;;5097818;28;20438;-60
2021/03/27 04:18:01;;;;;;;0.40;0.20;;;9.30;99.90;;;;;;5096167;28;20442;-60
2021/03/27 04:20:41;;;;;;;0.40;0.20;;;9.20;99.90;;;;;;5097751;28;20483;-60
2021/03/27 04:23:15;;;;;;;0.35;0.10;;;9.20;99.90;;;;;;5097735;28;20422;-59
2021/03/27 04:25:47;;;;;;;0.40;0.20;;;9.20;99.90;;;;;;5097907;28;20434;-60
2021/03/27 04:28:19;;;;;;;0.30;0.20;;;9.20;99.90;;;;;;5097083;28;20872;-59
2021/03/27 04:30:55;;;;;;;0.30;0.10;;;9.10;99.90;;;;;;5097106;28;20418;-59
2021/03/27 04:33:37;;;;;;;0.50;0.20;;;8.90;99.90;;;;;;5097540;28;20461;-59
2021/03/27 04:36:10;;;;;;;0.32;0.20;;;8.90;99.90;;;;;;5097056;28;20875;-59
2021/03/27 04:38:43;;;;;;;0.30;0.10;;;8.90;99.90;;;;;;5096583;28;20440;-60
2021/03/27 04:41:26;;;;;;;0.40;0.20;;;8.80;99.90;;;;;;5096046;28;20453;-60
2021/03/27 04:44:00;;;;;;;0.30;0.10;;;8.70;99.90;;;;;;5096869;28;20793;-59
2021/03/27 04:46:38;;;;;;;1.10;0.20;;;8.60;99.90;;;;;;5096672;28;20422;-60
2021/03/27 04:49:15;;;;;;;0.50;0.20;;;8.70;99.90;;;;;;5096034;28;20770;-60
2021/03/27 04:51:50;;;;;;;0.30;0.20;;;8.80;99.90;;;;;;5096423;28;20504;-60
2021/03/27 04:54:39;;;;;;;0.32;0.10;;;8.80;99.90;;;;;;5096544;28;20438;-61
2021/03/27 04:57:16;;;;;;;0.30;0.10;;;8.80;99.90;;;;;;5096751;28;20418;-59
2021/03/27 05:00:17;;;;;;;0.50;0.10;;;8.70;99.90;;;;;;5096811;28;20461;-60
2021/03/27 05:02:49;;;;;;;0.40;0.20;;;8.50;99.90;;;;;;5095654;28;20497;-60
2021/03/27 05:05:22;;;;;;;0.50;0.20;;;8.40;99.90;;;;;;5096104;28;20453;-60
2021/03/27 05:07:58;;;;;;;0.90;0.20;;;8.40;99.90;;;;;;5095009;28;20520;-61
2021/03/27 05:10:37;;;;;;;0.30;0.10;;;8.40;99.90;;;;;;5096524;28;20430;-59
2021/03/27 05:13:18;;;;;;;0.30;0.10;;;8.40;99.90;;;;;;5096263;28;20445;-59
2021/03/27 05:15:51;;;;;;;0.30;0.10;;;8.30;99.90;;;;;;5096809;28;20516;-60
2021/03/27 05:18:41;;;;;;;0.30;0.20;;;8.30;99.90;;;;;;5095853;28;20457;-60
2021/03/27 05:21:22;;;;;;;0.40;0.20;;;8.30;99.90;;;;;;5096137;28;20475;-59
2021/03/27 05:24:02;;;;;;;0.40;0.20;;;8.10;99.90;;;;;;5096436;28;20449;-60
2021/03/27 05:26:41;;;;;;;0.60;0.10;;;8.00;99.90;;;;;;5096125;28;20429;-59
2021/03/27 05:29:24;;;;;;;0.30;0.10;;;8.10;99.90;;;;;;5096323;28;20746;-59
2021/03/27 05:31:55;;;;;;;0.30;0.20;;;8.00;99.90;;;;;;5095357;28;20864;-60
2021/03/27 05:34:32;;;;;;;0.40;0.10;;;8.00;99.90;;;;;;5095534;28;20465;-59
2021/03/27 05:37:21;;;;;;;0.30;0.10;;;7.90;99.90;;;;;;5095768;28;20926;-60
2021/03/27 05:39:56;;;;;;;0.50;0.20;;;7.90;99.90;;;;;;5096353;28;20464;-60
2021/03/27 05:42:52;;;;;;;0.30;0.10;;;8.00;99.90;;;;;;5096208;28;20445;-60
2021/03/27 05:46:00;;;;;;;0.30;0.10;;;8.10;99.90;;;;;;5094586;28;20426;-60
2021/03/27 05:48:56;;;;;;;0.30;0.10;;;8.20;99.90;;;;;;5028538;28;20414;-59
2021/03/27 05:51:56;;;;;;;0.40;0.10;;;8.20;99.90;;;;;;5092398;28;20445;-59
2021/03/27 05:54:49;;;;;;;0.80;0.13;;;8.10;99.90;;;;;;5093059;28;20426;-59
2021/03/27 05:57:36;;;;;;;0.30;0.10;;;8.00;99.90;;;;;;5093593;28;20418;-59
2021/03/27 06:00:27;;;;;;;0.30;0.10;;;8.10;99.90;;;;;;5093873;28;20512;-59
2021/03/27 06:03:16;;;;;;;0.40;0.20;;;8.10;99.90;;;;;;5094522;28;20413;-59
2021/03/27 06:06:26;;;;;;;0.30;0.10;;;7.90;99.90;;;;;;5094975;28;20506;-60
2021/03/27 06:09:20;;;;;;;0.30;0.10;;;8.00;99.90;;;;;;5094252;28;20434;-60
2021/03/27 06:11:59;;;;;;;0.40;0.17;;;8.10;99.90;;;;;;5095073;28;20509;-59
2021/03/27 06:14:53;;;;;;;0.30;0.10;;;8.20;99.90;;;;;;5094848;28;20465;-59
2021/03/27 06:17:33;;;;;;;0.30;0.10;;;8.10;99.90;;;;;;5095580;28;20413;-60
2021/03/27 06:20:31;;;;;;;0.30;0.10;;;8.10;99.90;;;;;;5095680;28;20461;-60
2021/03/27 06:23:20;;;;;;;0.30;0.13;;;8.20;99.90;;;;;;5094825;28;20724;-60
2021/03/27 06:26:00;;;;;;;0.40;0.10;;;8.10;99.90;;;;;;5075192;28;20508;-60
2021/03/27 06:28:48;;;;;;;0.50;0.20;;;8.10;99.90;;;;;;5088352;28;20845;-60
2021/03/27 06:31:29;;;;;;;0.40;0.20;;;8.40;99.90;;;;;;5086042;28;20503;-60
2021/03/27 06:34:40;;;;;;;0.50;0.20;;;8.40;99.90;;;;;;5094441;28;20458;-57
2021/03/27 06:37:24;;;;;;;0.40;0.20;;;8.10;99.90;;;;;;5085681;28;20456;-59
2021/03/27 06:40:23;;;;;;;0.40;0.20;;;8.10;99.90;;;;;;5092457;28;20472;-61
2021/03/27 06:43:22;;;;;;;0.30;0.10;;;7.70;99.90;;;;;;5094780;28;20903;-61
2021/03/27 06:46:12;;;;;;;0.40;0.20;;;7.80;99.90;;;;;;5086921;28;20434;-60
2021/03/27 06:49:15;;;;;;;0.40;0.20;;;7.80;99.90;;;;;;5073781;28;20467;-61
2021/03/27 06:52:13;;;;;;;0.40;0.10;;;8.00;99.90;;;;;;5078325;28;20512;-61
2021/03/27 06:55:10;;;;;;;0.38;0.10;;;7.90;99.90;;;;;;5085489;28;20809;-61
2021/03/27 06:58:09;;;;;;;0.35;0.20;;;8.00;99.90;;;;;;5067391;28;20926;-61
2021/03/27 07:00:47;;;;;;;0.60;0.20;;;8.20;99.90;;;;;;5089343;28;20476;-61
2021/03/27 07:04:10;;;;;;;0.57;0.10;;;8.20;99.90;;;;;;5092978;28;20509;-61
2021/03/27 07:07:08;;;;;;;0.70;0.20;;;8.10;99.90;;;;;;5093559;28;20413;-61
2021/03/27 07:10:22;;;;;;;0.30;0.10;;;8.30;99.90;;;;;;5093612;28;20453;-61
2021/03/27 07:13:16;;;;;;;0.35;0.20;;;8.50;99.90;;;;;;5093548;28;20492;-61
2021/03/27 07:16:03;;;;;;;0.47;0.20;;;8.60;99.90;;;;;;5094133;28;20492;-62
2021/03/27 07:19:05;;;;;;;0.50;0.20;;;8.60;99.90;;;;;;5096024;28;20512;-62
2021/03/27 07:21:53;;;;;;;0.60;0.20;;;8.80;99.90;;;;;;5091814;28;20430;-62
2021/03/27 07:24:58;;;;;;;0.30;0.10;;;8.90;99.90;;;;;;5084434;28;20434;-62
2021/03/27 07:27:57;;;;;;;1.20;0.20;;;8.80;99.90;;;;;;5076039;28;20423;-62
2021/03/27 07:30:49;;;;;;;0.60;0.17;;;8.90;99.90;;;;;;5094760;28;20488;-61
2021/03/27 07:33:37;;;;;;;0.60;0.10;;;8.70;99.90;;;;;;5089174;28;20421;-61
2021/03/27 07:36:45;;;;;;;0.30;0.10;;;8.70;99.90;;;;;;5086241;28;20465;-61
2021/03/27 07:39:38;;;;;;;0.82;0.20;;;8.50;99.90;;;;;;5093980;28;20476;-62
2021/03/27 07:42:41;;;;;;;0.40;0.20;;;8.50;99.90;;;;;;5085127;28;20429;-61
2021/03/27 07:45:36;;;;;;;1.80;0.10;;;8.50;99.90;;;;;;5095182;28;20468;-59
2021/03/27 07:48:25;;;;;;;1.80;0.15;;;8.60;99.90;;;;;;5052393;28;20415;-61
2021/03/27 07:51:11;;;;;;;0.30;0.10;;;8.30;99.90;;;;;;5094917;28;20907;-60
2021/03/27 07:54:10;;;;;;;0.40;0.10;;;8.40;99.90;;;;;;5090509;28;20435;-60
2021/03/27 07:56:50;;;;;;;0.40;0.20;;;8.60;99.90;;;;;;5095085;28;20787;-61
2021/03/27 07:59:49;;;;;;;0.90;0.10;;;8.80;99.90;;;;;;5088346;28;20459;-60
2021/03/27 08:02:52;;;;;;;0.30;0.10;;;9.00;99.90;;;;;;5072727;28;20471;-59
2021/03/27 08:05:59;;;;;;;0.50;0.20;;;9.20;99.90;;;;;;5073099;28;20430;-59
2021/03/27 08:09:12;;;;;;;0.50;0.20;;;9.00;99.90;;;;;;5093489;28;20438;-59
2021/03/27 08:12:00;;;;;;;0.43;0.20;;;9.30;99.90;;;;;;5093302;28;20422;-59
2021/03/27 08:14:53;;;;;;;0.70;0.20;;;9.30;99.90;;;;;;5088561;28;20425;-59
2021/03/27 08:17:37;;;;;;;0.30;0.10;;;9.30;99.90;;;;;;5064932;28;20462;-59
2021/03/27 08:20:40;;;;;;;1.50;0.10;;;9.30;99.90;;;;;;5093254;28;20520;-60
2021/03/27 08:23:43;;;;;;;0.60;0.10;;;9.10;99.90;;;;;;5092255;28;20853;-58
2021/03/27 08:26:44;;;;;;;0.30;0.20;;;9.00;99.90;;;;;;5093698;28;20441;-58
2021/03/27 08:29:47;;;;;;;0.57;0.10;;;9.40;99.90;;;;;;5080074;28;20509;-58
2021/03/27 08:32:29;;;;;;;0.80;0.10;;;9.50;99.90;;;;;;5085212;28;20450;-59
2021/03/27 08:35:17;;;;;;;1.10;0.20;;;9.60;99.90;;;;;;5095400;28;20437;-59
2021/03/27 08:38:23;;;;;;;2.03;0.20;;;9.70;99.90;;;;;;5093902;28;20414;-58
2021/03/27 08:41:20;;;;;;;0.77;0.20;;;9.70;99.90;;;;;;5073042;28;20524;-60
2021/03/27 08:44:26;;;;;;;0.40;0.17;;;9.60;99.90;;;;;;5088613;28;20457;-60
2021/03/27 08:47:05;;;;;;;1.20;0.10;;;9.60;99.90;;;;;;5084621;28;20426;-59
2021/03/27 08:50:03;;;;;;;0.57;0.20;;;9.40;99.90;;;;;;5094611;28;20425;-59
2021/03/27 08:53:30;;;;;;;0.30;0.10;;;9.60;99.90;;;;;;5093903;28;20660;-59
2021/03/27 08:56:48;;;;;;;0.90;0.20;;;9.70;99.90;;;;;;5058129;28;20520;-60
2021/03/27 09:00:01;;;;;;;0.30;0.10;;;9.50;99.90;;;;;;5095866;28;20460;-59
2021/03/27 09:02:47;;;;;;;0.30;0.10;;;9.70;99.90;;;;;;5067398;28;20430;-60
2021/03/27 09:05:28;;;;;;;0.65;0.10;;;10.00;99.90;;;;;;5075286;28;20514;-61
2021/03/27 09:08:30;;;;;;;0.40;0.10;;;10.00;99.90;;;;;;5074226;28;20498;-61
2021/03/27 09:11:16;;;;;;;0.47;0.10;;;10.00;99.90;;;;;;5068581;28;20736;-61
2021/03/27 09:14:07;;;;;;;0.50;0.15;;;10.30;99.90;;;;;;5093023;28;20701;-61
2021/03/27 09:17:08;;;;;;;0.40;0.10;;;10.10;99.90;;;;;;5092898;28;20440;-61
2021/03/27 09:20:11;;;;;;;0.40;0.20;;;10.20;99.90;;;;;;5093707;28;20456;-60
2021/03/27 09:22:55;;;;;;;0.30;0.10;;;10.10;99.90;;;;;;5093776;28;20409;-60
2021/03/27 09:25:58;;;;;;;0.60;0.10;;;10.00;99.90;;;;;;5090103;28;20638;-59
2021/03/27 09:28:37;;;;;;;0.30;0.10;;;10.20;99.90;;;;;;5056032;28;20499;-59
2021/03/27 09:31:26;;;;;;;0.40;0.10;;;10.40;99.90;;;;;;5089390;28;20425;-59
2021/03/27 09:33:59;;;;;;;0.40;0.10;;;10.30;99.90;;;;;;5092492;28;20884;-59
2021/03/27 09:36:35;;;;;;;0.40;0.13;;;10.40;99.90;;;;;;5091966;28;20873;-60
2021/03/27 09:39:17;;;;;;;0.30;0.10;;;10.40;99.90;;;;;;5091385;28;20814;-59
2021/03/27 09:42:06;;;;;;;0.30;0.10;;;10.30;99.90;;;;;;5074075;28;20685;-60
2021/03/27 09:45:04;;;;;;;0.30;0.10;;;10.40;99.90;;;;;;5092993;28;20733;-61
2021/03/27 09:48:11;;;;;;;0.50;0.20;;;10.70;99.90;;;;;;5087613;28;20511;-60
2021/03/27 09:50:49;;;;;;;0.50;0.10;;;10.80;99.90;;;;;;5073602;28;20419;-61
2021/03/27 09:53:29;;;;;;;0.30;0.17;;;10.70;99.90;;;;;;5086438;28;20429;-61
2021/03/27 09:56:01;;;;;;;0.45;0.10;;;10.70;99.90;;;;;;5092558;28;20430;-61
2021/03/27 09:58:43;;;;;;;0.32;0.10;;;10.60;99.90;;;;;;5092190;28;20418;-60
2021/03/27 10:01:29;;;;;;;0.60;0.10;;;10.60;99.90;;;;;;5091690;28;20461;-60
2021/03/27 10:04:20;;;;;;;0.50;0.20;;;10.80;99.90;;;;;;5092203;28;20729;-60
2021/03/27 10:07:18;;;;;;;2.10;0.10;;;10.90;99.90;;;;;;5073728;28;20416;-61
2021/03/27 10:10:13;;;;;;;0.37;0.20;;;10.80;99.90;;;;;;5093167;28;20465;-61
2021/03/27 10:12:49;;;;;;;0.65;0.10;;;10.80;99.90;;;;;;5092607;28;20428;-61
2021/03/27 10:15:23;;;;;;;0.40;0.10;;;11.10;99.90;;;;;;5089959;28;20457;-61
2021/03/27 10:17:56;;;;;;;0.40;0.20;;;11.40;99.90;;;;;;5089946;28;20786;-61
2021/03/27 10:20:33;;;;;;;0.70;0.10;;;11.60;99.90;;;;;;5091290;28;20494;-60
2021/03/27 10:23:05;;;;;;;0.30;0.10;;;11.90;98.80;;;;;;5089382;28;20805;-62
2021/03/27 10:25:36;;;;;;;0.40;0.20;;;12.10;98.10;;;;;;5081139;28;20437;-61
2021/03/27 10:28:21;;;;;;;0.50;0.20;;;12.20;95.40;;;;;;5083450;28;20429;-61
2021/03/27 10:30:57;;;;;;;0.40;0.10;;;12.10;94.70;;;;;;5081316;28;20493;-61
2021/03/27 10:33:37;;;;;;;0.30;0.10;;;12.50;95.30;;;;;;5082225;28;20491;-61
2021/03/27 10:36:31;;;;;;;0.40;0.10;;;13.00;93.30;;;;;;5079537;28;20465;-61
2021/03/27 10:39:27;;;;;;;0.40;0.10;;;12.70;93.70;;;;;;5074529;28;20457;-61
2021/03/27 10:42:24;;;;;;;0.30;0.10;;;12.80;92.70;;;;;;5088372;28;20536;-61
2021/03/27 10:45:06;;;;;;;0.52;0.10;;;12.80;92.20;;;;;;5070273;28;21058;-60
2021/03/27 10:47:37;;;;;;;0.30;0.10;;;12.50;93.20;;;;;;5085718;28;20862;-59
2021/03/27 10:50:13;;;;;;;0.30;0.10;;;12.50;94.40;;;;;;5083919;28;20752;-59
2021/03/27 10:53:13;;;;;;;0.30;0.10;;;12.40;91.50;;;;;;5078204;28;20461;-59
2021/03/27 10:56:16;;;;;;;0.40;0.20;;;12.70;92.50;;;;;;5091965;28;20480;-61
2021/03/27 10:58:57;;;;;;;0.30;0.10;;;12.70;90.80;;;;;;5091369;28;20437;-60
2021/03/27 11:01:56;;;;;;;0.50;0.20;;;12.80;90.70;;;;;;5091200;28;20452;-61
2021/03/27 11:04:53;;;;;;;0.40;0.20;;;13.00;90.10;;;;;;5080191;28;20417;-60
2021/03/27 11:07:48;;;;;;;0.50;0.20;;;12.50;89.60;;;;;;5079615;28;20426;-58
2021/03/27 11:10:43;;;;;;;0.40;0.20;;;12.10;91.10;;;;;;5089217;28;20433;-62
2021/03/27 11:13:41;;;;;;;0.60;0.20;;;12.10;89.90;;;;;;5092204;28;20736;-61
2021/03/27 11:16:26;;;;;;;0.30;0.10;;;12.20;90.90;;;;;;5056395;28;20430;-59
2021/03/27 11:19:13;;;;;;;0.70;0.30;;;12.30;90.10;;;;;;5091145;28;20525;-60
2021/03/27 11:22:17;;;;;;;0.60;0.20;;;12.30;91.10;;;;;;5092052;28;20433;-60
2021/03/27 11:25:16;;;;;;;0.40;0.20;;;12.10;91.10;;;;;;5081417;28;20469;-60
2021/03/27 11:28:00;;;;;;;0.40;0.20;;;11.70;91.70;;;;;;5091334;28;20468;-61
2021/03/27 11:30:36;;;;;;;0.80;0.10;;;11.50;91.30;;;;;;5090142;28;20425;-60
2021/03/27 11:33:14;;;;;;;0.40;0.10;;;11.20;92.40;;;;;;5091047;28;20486;-61
2021/03/27 11:35:53;;;;;;;0.60;0.20;;;11.20;93.20;;;;;;5086031;28;20475;-60
2021/03/27 11:38:26;;;;;;;1.30;0.20;;;11.40;92.20;;;;;;5083128;28;20482;-59
2021/03/27 11:40:59;;;;;;;0.90;0.20;;;11.20;92.00;;;;;;5084473;28;20660;-60
2021/03/27 11:43:50;;;;;;;0.90;0.20;;;11.00;91.70;;;;;;5088156;28;20445;-59
2021/03/27 11:46:27;;;;;;;0.80;0.20;;;10.70;93.10;;;;;;5082653;28;20520;-59
2021/03/27 11:49:04;;;;;;;0.40;0.10;;;10.70;93.30;;;;;;5084021;28;20764;-60
2021/03/27 11:51:39;;;;;;;1.00;0.10;;;10.50;93.20;;;;;;5088440;28;20885;-58
2021/03/27 11:54:30;;;;;;;0.40;0.20;;;10.70;93.90;;;;;;5091394;28;20919;-59
2021/03/27 11:57:23;;;;;;;0.40;0.10;;;10.70;92.90;;;;;;5075164;28;20472;-59
2021/03/27 12:02:53;;;;;;;0.40;0.20;;;10.20;93.80;;;;;;5081311;28;20454;-60
2021/03/27 12:05:33;;;;;;;0.80;0.30;;;10.50;94.70;;;;;;5085916;28;20430;-60
2021/03/27 12:08:13;;;;;;;1.42;0.70;;;10.60;94.00;;;;;;5081413;28;20462;-62
2021/03/27 12:10:52;;;;;;;0.50;0.30;;;10.60;93.60;;;;;;5084193;28;20471;-62
2021/03/27 12:13:26;;;;;;;1.20;0.20;;;10.50;93.70;;;;;;5092579;28;20556;-63
2021/03/27 12:16:02;;;;;;;0.90;0.20;;;10.50;94.50;;;;;;5091593;28;21031;-62
2021/03/27 12:19:16;;;;;;;0.80;0.20;;;10.50;94.40;;;;;;5083771;28;20739;-61
2021/03/27 12:21:51;;;;;;;0.60;0.20;;;10.60;94.50;;;;;;5053172;28;20422;-63
2021/03/27 12:24:27;;;;;;;1.20;0.20;;;10.60;94.40;;;;;;5087057;28;20421;-62
2021/03/27 12:27:03;;;;;;;0.50;0.10;;;10.50;93.70;;;;;;5092547;28;20421;-62
2021/03/27 12:29:40;;;;;;;0.32;0.15;;;10.60;95.10;;;;;;5075966;28;20427;-62
2021/03/27 12:32:41;;;;;;;0.77;0.20;;;10.80;95.40;;;;;;5084183;28;20498;-62
2021/03/27 12:35:19;;;;;;;1.40;0.20;;;11.00;95.00;;;;;;5091835;28;20457;-63
2021/03/27 12:38:04;;;;;;;1.30;0.20;;;11.40;94.50;;;;;;5085864;28;21038;-63
2021/03/27 12:40:34;;;;;;;0.40;0.20;;;11.60;93.80;;;;;;5083381;28;20457;-63
2021/03/27 12:43:11;;;;;;;0.90;0.20;;;12.00;92.70;;;;;;5079294;28;20457;-62
2021/03/27 12:45:40;;;;;;;0.40;0.10;;;12.40;92.20;;;;;;5081717;28;20434;-63
2021/03/27 12:48:22;;;;;;;0.60;0.10;;;12.40;90.90;;;;;;5091108;28;20811;-63
2021/03/27 12:51:10;;;;;;;0.40;0.20;;;12.40;91.10;;;;;;5090926;28;20893;-63
2021/03/27 12:54:02;;;;;;;0.40;0.20;;;12.50;91.90;;;;;;5084563;28;20468;-63
2021/03/27 12:56:38;;;;;;;0.90;0.10;;;12.60;90.50;;;;;;5074622;28;20438;-63
2021/03/27 12:59:13;;;;;;;0.60;0.20;;;12.50;89.60;;;;;;5089017;28;20789;-62
2021/03/27 13:01:51;;;;;;;0.50;0.20;;;12.40;90.90;;;;;;5085208;28;20826;-63
2021/03/27 13:04:45;;;;;;;0.40;0.10;;;12.60;87.30;;;;;;5091442;28;20733;-63
2021/03/27 13:07:22;;;;;;;0.43;0.20;;;12.40;88.40;;;;;;5092221;28;20475;-62
2021/03/27 13:10:25;;;;;;;0.43;0.20;;;12.60;87.10;;;;;;5073680;28;20715;-61
2021/03/27 13:13:18;;;;;;;0.40;0.10;;;12.70;87.80;;;;;;5082586;28;20426;-63
2021/03/27 13:15:53;;;;;;;0.50;0.20;;;12.90;85.40;;;;;;5078789;28;20439;-61
2021/03/27 13:18:55;;;;;;;0.70;0.30;;;13.20;85.30;;;;;;5074638;28;20500;-61
2021/03/27 13:21:32;;;;;;;2.10;0.20;;;13.30;84.60;;;;;;5087183;28;20418;-62
2021/03/27 13:24:06;;;;;;;3.00;0.40;;;13.20;83.70;;;;;;5080924;28;20533;-62
2021/03/27 13:26:34;;;;;;;1.88;0.20;;;13.20;84.40;;;;;;5087674;28;20465;-62
2021/03/27 13:29:09;;;;;;;0.40;0.20;;;13.10;82.30;;;;;;5089159;28;20958;-61
2021/03/27 13:31:43;;;;;;;0.40;0.15;;;12.80;81.10;;;;;;5092518;28;20469;-61
2021/03/27 13:34:17;;;;;;;0.40;0.20;;;12.70;83.60;;;;;;5083820;28;20496;-60
2021/03/27 13:36:47;;;;;;;0.40;0.10;;;12.70;83.20;;;;;;5082680;28;20484;-61
2021/03/27 13:39:34;;;;;;;0.40;0.20;;;12.60;83.90;;;;;;5081112;28;20430;-61
2021/03/27 13:42:14;;;;;;;0.80;0.20;;;12.60;83.70;;;;;;5088226;28;20714;-61
2021/03/27 13:44:53;;;;;;;0.80;0.20;;;12.80;83.90;;;;;;5090088;28;20790;-60
2021/03/27 13:47:39;;;;;;;0.65;0.20;;;12.80;84.50;;;;;;5084037;28;20506;-60
2021/03/27 13:50:28;;;;;;;0.60;0.20;;;12.90;84.80;;;;;;5076970;28;20433;-61
2021/03/27 13:53:16;;;;;;;0.70;0.20;;;12.90;82.90;;;;;;5078126;28;20444;-61
2021/03/27 13:55:54;;;;;;;0.40;0.20;;;12.80;83.30;;;;;;5073026;28;20594;-61
2021/03/27 13:58:24;;;;;;;0.50;0.20;;;13.00;85.10;;;;;;5087656;28;20425;-62
2021/03/27 14:00:59;;;;;;;0.82;0.20;;;13.30;84.60;;;;;;5077528;28;20463;-61
2021/03/27 14:03:37;;;;;;;0.63;0.20;;;13.40;81.80;;;;;;5089321;28;20417;-62
2021/03/27 14:06:18;;;;;;;0.40;0.20;;;12.40;81.30;;;;;;5091118;28;20460;-63
2021/03/27 14:09:09;;;;;;;0.40;0.13;;;12.30;83.60;;;;;;5090675;28;20470;-62
2021/03/27 14:11:43;;;;;;;0.50;0.20;;;12.20;83.90;;;;;;5090426;28;20429;-64
2021/03/27 14:14:18;;;;;;;0.80;0.17;;;12.40;83.70;;;;;;5091106;28;20826;-62
2021/03/27 14:16:55;;;;;;;0.50;0.10;;;12.80;85.50;;;;;;5090865;28;20429;-62
2021/03/27 14:19:44;;;;;;;0.43;0.15;;;12.90;82.80;;;;;;5090226;28;20422;-63